Time;durP1;ratioP1;P1;durP2;ratioP2;P2;SDS_P1;SDS_P2;PMS_P1;PMS_P2;Temp;Humidity;BMP_temperature;BMP_pressure;BME280_temperature;BME280_humidity;BME280_pressure;Samples;Min_cycle;Max_cycle;Signal;HPM_P1;HPM_P2
2023/04/02 00:02:21;;;;;;;8.88;5.60;;;6.00;79.80;;;;;;5065957;28;20463;-77
2023/04/02 00:05:30;;;;;;;10.50;5.47;;;6.00;79.80;;;;;;5066107;28;20142;-77
2023/04/02 00:08:27;;;;;;;10.38;5.68;;;6.00;79.70;;;;;;5062091;28;20042;-77
2023/04/02 00:10:55;;;;;;;9.30;5.22;;;5.90;79.80;;;;;;5040700;28;20041;-76
2023/04/02 00:13:38;;;;;;;9.32;5.38;;;5.90;80.10;;;;;;5022906;28;20084;-77
2023/04/02 00:16:10;;;;;;;13.75;7.00;;;5.90;79.80;;;;;;5049383;28;20042;-77
2023/04/02 00:18:50;;;;;;;23.67;15.63;;;5.90;80.00;;;;;;5056517;28;20120;-77
2023/04/02 00:21:26;;;;;;;26.98;18.40;;;5.90;80.20;;;;;;5016260;28;20042;-77
2023/04/02 00:23:59;;;;;;;8.98;4.75;;;5.90;80.40;;;;;;4999493;28;20037;-77
2023/04/02 00:26:42;;;;;;;10.20;5.72;;;5.90;80.40;;;;;;5031319;28;20128;-77
2023/04/02 00:29:11;;;;;;;11.27;5.53;;;5.90;80.20;;;;;;5013068;28;20045;-77
2023/04/02 00:32:06;;;;;;;9.23;4.88;;;5.90;80.30;;;;;;5065803;28;20079;-77
2023/04/02 00:34:35;;;;;;;9.32;6.13;;;5.90;80.20;;;;;;5030221;28;20053;-77
2023/04/02 00:37:01;;;;;;;8.45;4.60;;;5.80;80.00;;;;;;5065622;28;20175;-77
2023/04/02 00:39:40;;;;;;;9.55;5.45;;;5.80;79.50;;;;;;5032851;28;20048;-77
2023/04/02 00:42:06;;;;;;;7.43;4.68;;;5.80;79.20;;;;;;5032375;28;20040;-77
2023/04/02 00:44:41;;;;;;;11.23;7.00;;;5.80;79.10;;;;;;5049294;28;20099;-77
2023/04/02 00:47:20;;;;;;;7.15;4.72;;;5.70;79.00;;;;;;5019267;28;20143;-77
2023/04/02 00:49:47;;;;;;;8.52;5.00;;;5.70;78.70;;;;;;5023287;28;20042;-77
2023/04/02 00:52:17;;;;;;;9.20;5.07;;;5.70;78.40;;;;;;5015356;28;20040;-77
2023/04/02 00:54:49;;;;;;;8.98;5.03;;;5.60;78.20;;;;;;5015825;28;20037;-77
2023/04/02 00:57:22;;;;;;;9.50;5.10;;;5.60;78.20;;;;;;5023339;28;20385;-77
2023/04/02 01:00:21;;;;;;;8.90;5.72;;;5.60;77.90;;;;;;5034649;28;20042;-77
2023/04/02 01:03:33;;;;;;;7.97;4.68;;;5.50;78.10;;;;;;5018955;28;20050;-76
2023/04/02 01:06:09;;;;;;;7.43;5.05;;;5.50;78.00;;;;;;4993965;28;20050;-77
2023/04/02 01:09:08;;;;;;;6.80;4.35;;;5.40;78.20;;;;;;5002378;28;20518;-77
2023/04/02 01:12:09;;;;;;;9.77;5.63;;;5.40;77.30;;;;;;4992449;28;20058;-77
2023/04/02 01:14:44;;;;;;;9.07;5.00;;;5.40;77.90;;;;;;5034953;28;20066;-77
2023/04/02 01:17:31;;;;;;;10.82;5.35;;;5.40;78.20;;;;;;5008321;28;20099;-77
2023/04/02 01:20:27;;;;;;;7.80;5.13;;;5.40;77.90;;;;;;5015404;28;20562;-77
2023/04/02 01:23:04;;;;;;;9.63;5.07;;;5.30;77.40;;;;;;5010141;28;20037;-77
2023/04/02 01:25:42;;;;;;;9.75;4.85;;;5.30;77.60;;;;;;5031656;28;20388;-77
2023/04/02 01:28:48;;;;;;;7.45;4.88;;;5.30;77.30;;;;;;4983617;28;20473;-77
2023/04/02 01:31:15;;;;;;;9.55;4.72;;;5.20;76.90;;;;;;4999807;28;20488;-77
2023/04/02 01:33:41;;;;;;;8.48;4.80;;;5.20;77.40;;;;;;5049372;28;20069;-78
2023/04/02 01:36:21;;;;;;;7.10;4.45;;;5.20;77.40;;;;;;5003140;28;20087;-78
2023/04/02 01:39:06;;;;;;;8.18;4.38;;;5.20;76.80;;;;;;5019532;28;20041;-78
2023/04/02 01:41:40;;;;;;;7.80;4.53;;;5.10;76.50;;;;;;5034322;28;20171;-78
2023/04/02 01:44:16;;;;;;;6.85;4.63;;;5.10;76.90;;;;;;5035514;28;20115;-77
2023/04/02 01:46:46;;;;;;;7.57;4.75;;;5.10;76.70;;;;;;5046592;28;20037;-78
2023/04/02 01:49:20;;;;;;;9.18;4.20;;;5.00;76.50;;;;;;5037593;28;20037;-78
2023/04/02 01:51:51;;;;;;;8.55;3.72;;;5.00;76.30;;;;;;5054113;28;20045;-78
2023/04/02 01:54:19;;;;;;;7.25;3.70;;;5.00;76.60;;;;;;5025993;28;20045;-78
2023/04/02 01:56:46;;;;;;;7.28;3.72;;;4.90;76.40;;;;;;5002828;28;20444;-78
2023/04/02 01:59:14;;;;;;;8.50;3.97;;;4.90;76.10;;;;;;5023713;28;20049;-78
2023/04/02 02:01:53;;;;;;;7.18;4.18;;;4.90;75.80;;;;;;5041453;28;20392;-78
2023/04/02 02:04:19;;;;;;;8.05;4.10;;;4.80;75.40;;;;;;5051509;28;20136;-78
2023/04/02 02:06:46;;;;;;;9.02;3.65;;;4.80;75.30;;;;;;5016543;28;20052;-78
2023/04/02 02:09:22;;;;;;;8.40;3.25;;;4.70;75.40;;;;;;5063953;28;20392;-78
2023/04/02 02:11:49;;;;;;;8.32;3.55;;;4.70;75.50;;;;;;5002120;28;20045;-78
2023/04/02 02:14:24;;;;;;;7.00;3.97;;;4.60;75.50;;;;;;5031823;28;20527;-77
2023/04/02 02:16:55;;;;;;;5.13;3.28;;;4.60;75.50;;;;;;5051453;28;20046;-77
2023/04/02 02:19:42;;;;;;;7.32;3.60;;;4.40;75.20;;;;;;5050666;28;20444;-77
2023/04/02 02:22:16;;;;;;;9.65;3.90;;;4.40;75.30;;;;;;5027373;28;20068;-78
2023/04/02 02:24:42;;;;;;;;;;;4.40;75.40;;;;;;5069099;28;20037;-77
2023/04/02 02:27:35;;;;;;;6.75;3.53;;;4.30;75.10;;;;;;5050691;28;19921;-78
2023/04/02 02:30:19;;;;;;;6.97;3.58;;;4.20;75.50;;;;;;5030932;28;20041;-78
2023/04/02 02:32:55;;;;;;;6.73;3.60;;;4.10;75.50;;;;;;5029010;28;20045;-78
2023/04/02 02:35:29;;;;;;;7.60;3.22;;;4.10;75.60;;;;;;5034635;28;20790;-77
2023/04/02 02:38:27;;;;;;;11.02;3.67;;;4.00;75.60;;;;;;4997399;28;20121;-78
2023/04/02 02:40:58;;;;;;;8.07;3.17;;;4.00;75.40;;;;;;4997322;28;20179;-77
2023/04/02 02:43:25;;;;;;;7.05;3.15;;;3.90;75.50;;;;;;5018765;28;20512;-77
2023/04/02 02:45:54;;;;;;;6.53;3.13;;;3.90;75.50;;;;;;5044150;28;20667;-78
2023/04/02 02:48:34;;;;;;;5.63;3.20;;;3.80;75.40;;;;;;5036512;28;20120;-77
2023/04/02 02:51:05;;;;;;;7.20;3.22;;;3.80;75.40;;;;;;5050848;28;20107;-78
2023/04/02 02:53:31;;;;;;;7.93;3.17;;;3.70;75.20;;;;;;5022018;28;20041;-78
2023/04/02 02:55:59;;;;;;;8.75;3.15;;;3.70;75.30;;;;;;5020787;28;20542;-78
2023/04/02 02:58:30;;;;;;;7.07;3.33;;;3.60;75.30;;;;;;5021194;28;20048;-78
2023/04/02 03:00:56;;;;;;;8.88;2.67;;;3.50;75.20;;;;;;5026991;28;20072;-77
2023/04/02 03:03:28;;;;;;;8.48;2.58;;;3.50;75.20;;;;;;5029171;28;20107;-77
2023/04/02 03:05:58;;;;;;;5.68;2.70;;;3.50;75.40;;;;;;5031434;28;20113;-78
2023/04/02 03:08:55;;;;;;;7.57;2.88;;;3.40;75.40;;;;;;5033967;28;20051;-77
2023/04/02 03:11:45;;;;;;;12.35;3.38;;;3.40;75.50;;;;;;5034418;28;20048;-77
2023/04/02 03:14:27;;;;;;;8.77;3.33;;;3.30;75.70;;;;;;5036634;28;20072;-77
2023/04/02 03:17:03;;;;;;;6.95;2.72;;;3.30;75.70;;;;;;5032056;28;20033;-77
2023/04/02 03:19:44;;;;;;;8.88;3.60;;;3.30;75.70;;;;;;4997707;28;20076;-77
2023/04/02 03:22:25;;;;;;;6.97;3.55;;;3.20;75.70;;;;;;4981771;28;20397;-77
2023/04/02 03:24:58;;;;;;;7.13;2.78;;;3.20;75.50;;;;;;4981514;28;20038;-77
2023/04/02 03:27:43;;;;;;;7.70;2.80;;;3.20;75.70;;;;;;5018587;28;20044;-78
2023/04/02 03:30:21;;;;;;;;;;;3.10;75.50;;;;;;5017776;28;20053;-78
2023/04/02 03:32:51;;;;;;;6.00;2.58;;;3.10;75.60;;;;;;5017367;28;19921;-78
2023/04/02 03:35:20;;;;;;;9.52;2.55;;;3.00;75.80;;;;;;5033431;28;20038;-78
2023/04/02 03:38:04;;;;;;;8.82;3.13;;;3.00;75.90;;;;;;5017033;28;20060;-78
2023/04/02 03:40:40;;;;;;;8.32;3.03;;;3.00;75.80;;;;;;5016985;28;20045;-78
2023/04/02 03:43:14;;;;;;;6.18;2.47;;;3.00;75.80;;;;;;5033340;28;20037;-78
2023/04/02 03:45:44;;;;;;;8.73;2.92;;;2.90;75.80;;;;;;5050216;28;20132;-78
2023/04/02 03:48:13;;;;;;;8.15;2.63;;;2.90;76.10;;;;;;5043784;28;20061;-78
2023/04/02 03:50:54;;;;;;;8.23;2.53;;;2.90;75.90;;;;;;5043856;28;20033;-78
2023/04/02 03:53:25;;;;;;;5.80;2.30;;;2.80;75.80;;;;;;4997116;28;20076;-76
2023/04/02 03:55:52;;;;;;;7.47;2.50;;;2.80;75.90;;;;;;4996877;28;20485;-77
2023/04/02 03:58:24;;;;;;;4.13;2.08;;;2.80;75.90;;;;;;4997483;28;20049;-77
2023/04/02 04:01:26;;;;;;;7.13;2.50;;;2.70;75.50;;;;;;4997126;28;20070;-77
2023/04/02 04:04:12;;;;;;;5.10;2.13;;;2.70;75.60;;;;;;4974310;28;20154;-77
2023/04/02 04:06:43;;;;;;;5.65;2.50;;;2.70;75.80;;;;;;5008215;28;20071;-78
2023/04/02 04:09:16;;;;;;;7.15;2.53;;;2.70;76.00;;;;;;4977763;28;20105;-78
2023/04/02 04:11:51;;;;;;;8.00;2.72;;;2.70;75.80;;;;;;4977739;28;20065;-78
2023/04/02 04:14:31;;;;;;;5.45;2.30;;;2.70;75.50;;;;;;4993967;28;20044;-78
2023/04/02 04:17:08;;;;;;;6.17;2.00;;;2.60;75.80;;;;;;4981860;28;20042;-78
2023/04/02 04:20:20;;;;;;;6.65;2.22;;;2.60;75.70;;;;;;5003464;28;20039;-78
2023/04/02 04:22:48;;;;;;;9.70;2.50;;;2.60;75.60;;;;;;4989298;28;20598;-78
2023/04/02 04:25:28;;;;;;;4.63;2.07;;;2.60;75.60;;;;;;5005054;28;20057;-78
2023/04/02 04:28:06;;;;;;;11.40;3.17;;;2.60;75.70;;;;;;4993590;28;20049;-78
2023/04/02 04:31:00;;;;;;;8.10;2.53;;;2.60;75.90;;;;;;5009716;28;20038;-77
2023/04/02 04:33:45;;;;;;;5.60;2.40;;;2.60;75.50;;;;;;5009601;28;20046;-78
2023/04/02 04:36:26;;;;;;;6.97;2.50;;;2.60;75.60;;;;;;4993234;28;20398;-78
2023/04/02 04:38:58;;;;;;;4.83;2.07;;;2.60;75.50;;;;;;4993139;28;20053;-78
2023/04/02 04:41:30;;;;;;;5.13;2.00;;;2.60;75.70;;;;;;4993310;28;20096;-78
2023/04/02 04:44:05;;;;;;;9.60;2.10;;;2.60;75.60;;;;;;4993189;28;20121;-78
2023/04/02 04:46:39;;;;;;;5.90;1.97;;;2.60;75.40;;;;;;5026069;28;20157;-78
2023/04/02 04:49:26;;;;;;;6.57;2.20;;;2.60;75.30;;;;;;5009177;28;20034;-78
2023/04/02 04:51:55;;;;;;;4.47;2.00;;;2.60;75.30;;;;;;4988872;28;20088;-77
2023/04/02 04:54:25;;;;;;;6.80;2.30;;;2.60;75.60;;;;;;5012387;28;20493;-78
2023/04/02 04:56:58;;;;;;;6.53;2.07;;;2.50;75.50;;;;;;5009218;28;20042;-77
2023/04/02 04:59:32;;;;;;;9.93;3.23;;;2.60;75.40;;;;;;5000657;28;20481;-78
2023/04/02 05:02:16;;;;;;;4.22;2.00;;;2.60;75.50;;;;;;4979916;28;20042;-78
2023/04/02 05:04:47;;;;;;;5.35;2.05;;;2.50;75.40;;;;;;5024503;28;20061;-77
2023/04/02 05:07:27;;;;;;;7.27;1.57;;;2.80;75.60;;;;;;5045237;28;20042;-78
2023/04/02 05:10:44;;;;;;;5.00;1.93;;;2.60;75.10;;;;;;5029091;28;20124;-78
2023/04/02 05:13:21;;;;;;;5.30;2.30;;;2.50;74.80;;;;;;4992141;28;20115;-78
2023/04/02 05:16:08;;;;;;;4.27;1.57;;;2.50;74.70;;;;;;5012114;28;20124;-78
2023/04/02 05:18:43;;;;;;;7.33;2.43;;;2.50;74.60;;;;;;4995780;28;20041;-77
2023/04/02 05:21:26;;;;;;;3.63;1.93;;;2.40;74.40;;;;;;4995879;28;20042;-78
2023/04/02 05:24:16;;;;;;;5.37;1.30;;;2.40;74.30;;;;;;4995775;28;20104;-78
2023/04/02 05:26:45;;;;;;;6.40;1.53;;;2.40;74.60;;;;;;5027046;28;20041;-78
2023/04/02 05:29:25;;;;;;;5.50;1.40;;;2.40;74.80;;;;;;5031799;28;20045;-78
2023/04/02 05:32:14;;;;;;;7.10;2.23;;;2.40;75.00;;;;;;5031745;28;20052;-77
2023/04/02 05:34:46;;;;;;;4.13;1.73;;;2.40;74.90;;;;;;5030865;28;20045;-78
2023/04/02 05:37:24;;;;;;;6.23;1.50;;;2.40;75.00;;;;;;5028534;28;20041;-78
2023/04/02 05:39:54;;;;;;;4.33;1.23;;;2.40;74.90;;;;;;5028481;28;20575;-78
2023/04/02 05:42:42;;;;;;;6.40;1.60;;;2.30;74.80;;;;;;4995590;28;20042;-78
2023/04/02 05:45:26;;;;;;;5.83;1.63;;;2.30;74.60;;;;;;5045099;28;20052;-78
2023/04/02 05:48:00;;;;;;;4.60;1.73;;;2.30;74.40;;;;;;5046294;28;20065;-77
2023/04/02 05:50:36;;;;;;;5.40;1.38;;;2.30;74.60;;;;;;5015609;28;20042;-77
2023/04/02 05:53:21;;;;;;;5.17;1.50;;;2.30;74.70;;;;;;5031955;28;20045;-77
2023/04/02 05:56:12;;;;;;;8.73;1.40;;;2.30;74.90;;;;;;5010187;28;20053;-77
2023/04/02 05:58:50;;;;;;;6.77;1.63;;;2.30;75.20;;;;;;5015813;28;20034;-77
2023/04/02 06:01:46;;;;;;;5.57;1.77;;;2.30;75.30;;;;;;5011894;28;20041;-77
2023/04/02 06:04:25;;;;;;;4.67;1.37;;;2.30;75.40;;;;;;5011623;28;20428;-77
2023/04/02 06:06:58;;;;;;;3.60;1.13;;;2.40;75.50;;;;;;5045451;28;20385;-77
2023/04/02 06:09:34;;;;;;;3.87;1.50;;;2.40;75.50;;;;;;5045062;28;20444;-77
2023/04/02 06:12:30;;;;;;;5.80;1.93;;;2.80;76.00;;;;;;5022017;28;20049;-77
2023/04/02 06:14:56;;;;;;;4.93;1.53;;;2.50;75.80;;;;;;5035404;28;20083;-77
2023/04/02 06:17:22;;;;;;;6.53;1.67;;;2.60;75.90;;;;;;4995905;28;20038;-77
2023/04/02 06:19:49;;;;;;;5.80;1.53;;;2.70;75.80;;;;;;5000120;28;20042;-77
2023/04/02 06:22:34;;;;;;;5.40;1.23;;;2.80;75.70;;;;;;4999072;28;20092;-77
2023/04/02 06:25:12;;;;;;;5.88;1.98;;;2.90;75.30;;;;;;5031605;28;20437;-77
2023/04/02 06:27:40;;;;;;;4.30;1.40;;;3.00;74.90;;;;;;4998765;28;20045;-77
2023/04/02 06:30:16;;;;;;;6.20;2.33;;;3.10;74.40;;;;;;5004003;28;20037;-77
2023/04/02 06:32:41;;;;;;;5.45;1.38;;;3.20;73.80;;;;;;5018099;28;20532;-77
2023/04/02 06:35:12;;;;;;;6.70;1.38;;;3.30;73.30;;;;;;4979859;28;20133;-77
2023/04/02 06:37:41;;;;;;;6.97;1.95;;;3.50;73.40;;;;;;4998573;28;20046;-77
2023/04/02 06:40:33;;;;;;;3.42;1.00;;;3.60;73.00;;;;;;4998982;28;20038;-77
2023/04/02 06:43:02;;;;;;;4.95;2.03;;;3.70;73.00;;;;;;4998854;28;20427;-77
2023/04/02 06:45:32;;;;;;;4.40;1.33;;;3.90;72.80;;;;;;5015020;28;20053;-77
2023/04/02 06:48:01;;;;;;;5.38;1.30;;;3.90;72.00;;;;;;5014990;28;20042;-77
2023/04/02 06:50:55;;;;;;;3.75;1.17;;;4.00;71.20;;;;;;5004792;28;20538;-77
2023/04/02 06:53:36;;;;;;;6.18;1.40;;;4.10;70.90;;;;;;5011493;28;20045;-77
2023/04/02 06:56:30;;;;;;;3.70;1.20;;;4.10;70.90;;;;;;5031117;28;20042;-77
2023/04/02 06:58:57;;;;;;;6.63;1.30;;;4.10;70.10;;;;;;4998077;28;20527;-77
2023/04/02 07:01:27;;;;;;;5.25;1.40;;;4.10;69.80;;;;;;4998489;28;20048;-77
2023/04/02 07:03:53;;;;;;;5.57;1.63;;;4.20;70.10;;;;;;5014420;28;20061;-77
2023/04/02 07:06:20;;;;;;;4.32;1.30;;;4.20;69.60;;;;;;4998234;28;20132;-77
2023/04/02 07:08:47;;;;;;;4.78;1.50;;;4.20;68.70;;;;;;5014424;28;20492;-77
2023/04/02 07:11:18;;;;;;;7.15;2.33;;;4.20;68.90;;;;;;5014262;28;20512;-77
2023/04/02 07:13:44;;;;;;;7.10;1.40;;;4.20;68.80;;;;;;5014559;28;20049;-77
2023/04/02 07:16:18;;;;;;;5.53;2.20;;;4.20;68.90;;;;;;4997945;28;20042;-77
2023/04/02 07:18:44;;;;;;;3.80;1.25;;;4.20;68.90;;;;;;5030817;28;20041;-77
2023/04/02 07:21:10;;;;;;;5.85;1.02;;;4.30;69.20;;;;;;5014110;28;20048;-77
2023/04/02 07:23:36;;;;;;;4.40;1.80;;;4.30;68.60;;;;;;5046805;28;20034;-77
2023/04/02 07:26:04;;;;;;;6.57;1.50;;;4.30;68.70;;;;;;5030768;28;20041;-77
2023/04/02 07:28:30;;;;;;;6.00;1.67;;;4.40;68.70;;;;;;5014289;28;20388;-77
2023/04/02 07:30:56;;;;;;;7.07;1.75;;;4.40;67.90;;;;;;4981335;28;20041;-77
2023/04/02 07:33:25;;;;;;;7.00;1.27;;;4.40;67.10;;;;;;4981308;28;20049;-77
2023/04/02 07:35:52;;;;;;;6.68;1.50;;;4.50;67.70;;;;;;5013622;28;20528;-76
2023/04/02 07:38:18;;;;;;;7.65;1.50;;;4.50;67.60;;;;;;5013478;28;20038;-77
2023/04/02 07:40:44;;;;;;;7.13;1.48;;;4.50;67.20;;;;;;5030190;28;20044;-76
2023/04/02 07:43:10;;;;;;;5.88;1.38;;;4.50;66.90;;;;;;4996826;28;20121;-77
2023/04/02 07:45:35;;;;;;;5.05;1.45;;;4.50;66.20;;;;;;4981097;28;20034;-77
2023/04/02 07:48:12;;;;;;;4.53;1.23;;;4.50;67.10;;;;;;5013216;28;20104;-77
2023/04/02 07:50:38;;;;;;;7.40;1.63;;;4.50;67.00;;;;;;4980246;28;20129;-77
2023/04/02 07:53:04;;;;;;;4.60;1.27;;;4.50;67.50;;;;;;5056192;28;20129;-77
2023/04/02 07:55:30;;;;;;;3.78;1.15;;;4.60;67.80;;;;;;4998615;28;20037;-78
2023/04/02 07:57:58;;;;;;;3.50;1.20;;;4.70;67.50;;;;;;5012840;28;20112;-77
2023/04/02 08:00:25;;;;;;;5.25;1.20;;;4.70;66.90;;;;;;5029294;28;20041;-77
2023/04/02 08:02:51;;;;;;;3.85;1.23;;;4.80;66.90;;;;;;5012479;28;20068;-77
2023/04/02 08:05:17;;;;;;;4.05;1.17;;;4.90;66.00;;;;;;5032402;28;20038;-77
2023/04/02 08:07:50;;;;;;;6.05;1.08;;;4.90;65.40;;;;;;5049338;28;20083;-76
2023/04/02 08:10:18;;;;;;;5.03;1.10;;;5.00;65.70;;;;;;5049297;28;20295;-77
2023/04/02 08:12:44;;;;;;;6.03;1.27;;;5.00;66.60;;;;;;4999956;28;20048;-77
2023/04/02 08:15:13;;;;;;;3.70;1.52;;;5.10;67.40;;;;;;5016284;28;20111;-77
2023/04/02 08:17:39;;;;;;;3.90;1.20;;;5.30;66.10;;;;;;5016168;28;20057;-77
2023/04/02 08:20:06;;;;;;;4.72;1.23;;;5.40;65.00;;;;;;4999874;28;20037;-77
2023/04/02 08:22:32;;;;;;;6.95;1.40;;;5.50;64.50;;;;;;5028033;28;20042;-78
2023/04/02 08:24:58;;;;;;;6.50;1.35;;;5.60;64.80;;;;;;5015650;28;20042;-76
2023/04/02 08:27:25;;;;;;;3.63;1.15;;;5.70;64.30;;;;;;4983885;28;20048;-77
2023/04/02 08:29:50;;;;;;;5.13;1.98;;;5.80;63.50;;;;;;5032282;28;20037;-76
2023/04/02 08:32:17;;;;;;;3.00;0.80;;;5.90;63.30;;;;;;5016112;28;20041;-76
2023/04/02 08:34:44;;;;;;;7.78;2.42;;;6.00;63.50;;;;;;5048840;28;20048;-76
2023/04/02 08:37:13;;;;;;;6.70;1.85;;;6.00;63.30;;;;;;5032413;28;20080;-81
2023/04/02 08:39:40;;;;;;;7.55;1.73;;;6.10;62.70;;;;;;5032676;28;20120;-79
2023/04/02 08:42:20;;;;;;;4.90;1.02;;;6.20;63.30;;;;;;5015923;28;20041;-81
2023/04/02 08:45:34;;;;;;;4.07;1.00;;;6.30;63.00;;;;;;4999957;28;20038;-81
2023/04/02 08:48:02;;;;;;;3.22;0.95;;;6.40;63.60;;;;;;4993931;28;20045;-81
2023/04/02 08:50:35;;;;;;;3.50;1.35;;;6.60;63.60;;;;;;5016184;28;20045;-81
2023/04/02 08:53:04;;;;;;;6.43;1.20;;;6.60;61.80;;;;;;4999839;28;20037;-79
2023/04/02 08:55:41;;;;;;;6.45;2.05;;;6.60;61.10;;;;;;5032228;28;20365;-81
2023/04/02 08:58:26;;;;;;;6.38;1.73;;;6.70;60.40;;;;;;5016026;28;20496;-82
2023/04/02 09:00:54;;;;;;;2.85;1.13;;;6.70;60.40;;;;;;5032306;28;20033;-82
2023/04/02 09:03:27;;;;;;;5.20;1.23;;;6.70;60.70;;;;;;5048339;28;20054;-82
2023/04/02 09:05:54;;;;;;;3.53;1.20;;;6.80;60.80;;;;;;5015829;28;20132;-81
2023/04/02 09:08:26;;;;;;;5.57;1.40;;;6.80;61.30;;;;;;5015857;28;20037;-82
2023/04/02 09:11:08;;;;;;;3.38;0.98;;;6.90;61.80;;;;;;4999407;28;20033;-81
2023/04/02 09:13:39;;;;;;;4.40;1.10;;;7.00;62.10;;;;;;5028759;28;20052;-81
2023/04/02 09:16:15;;;;;;;5.82;1.25;;;7.10;60.10;;;;;;4996683;28;20069;-81
2023/04/02 09:18:44;;;;;;;5.07;1.23;;;7.20;60.70;;;;;;5009141;28;20139;-81
2023/04/02 09:21:22;;;;;;;6.30;1.38;;;7.30;61.30;;;;;;4992278;28;20041;-81
2023/04/02 09:23:48;;;;;;;5.43;1.40;;;7.40;59.30;;;;;;4991486;28;20131;-81
2023/04/02 09:26:31;;;;;;;3.75;1.38;;;7.40;60.20;;;;;;5023146;28;20041;-81
2023/04/02 09:29:12;;;;;;;4.43;1.23;;;7.60;59.80;;;;;;4992305;28;20041;-81
2023/04/02 09:31:53;;;;;;;5.13;1.17;;;7.60;59.00;;;;;;5011260;28;20427;-81
2023/04/02 09:34:35;;;;;;;4.53;1.35;;;7.60;57.90;;;;;;5025100;28;20086;-81
2023/04/02 09:37:12;;;;;;;5.55;1.33;;;7.60;58.50;;;;;;4992370;28;20072;-82
2023/04/02 09:39:38;;;;;;;7.82;1.88;;;7.60;59.50;;;;;;5009002;28;20042;-81
2023/04/02 09:42:32;;;;;;;4.75;1.20;;;7.70;59.20;;;;;;5009274;28;20044;-81
2023/04/02 09:45:25;;;;;;;4.68;1.38;;;7.80;59.20;;;;;;5024815;28;20033;-82
2023/04/02 09:47:52;;;;;;;3.95;1.10;;;8.00;59.60;;;;;;5011578;28;20378;-81
2023/04/02 09:50:26;;;;;;;3.90;1.30;;;8.10;58.70;;;;;;5013952;28;20095;-82
2023/04/02 09:52:52;;;;;;;3.97;1.95;;;8.20;59.00;;;;;;4996458;28;20045;-81
2023/04/02 09:55:21;;;;;;;6.07;1.30;;;8.20;58.20;;;;;;5028844;28;20060;-82
2023/04/02 09:57:49;;;;;;;3.92;1.27;;;8.30;58.30;;;;;;5029716;28;20041;-81
2023/04/02 10:00:26;;;;;;;3.55;1.10;;;8.30;57.00;;;;;;5013660;28;20045;-81
2023/04/02 10:03:00;;;;;;;3.78;1.20;;;8.30;56.20;;;;;;5029346;28;20075;-80
2023/04/02 10:05:26;;;;;;;5.88;1.63;;;8.30;56.20;;;;;;5058039;28;20100;-82
2023/04/02 10:07:54;;;;;;;3.42;1.30;;;8.40;56.50;;;;;;5028574;28;20404;-81
2023/04/02 10:10:35;;;;;;;3.92;1.10;;;8.40;57.10;;;;;;5028485;28;20041;-80
2023/04/02 10:13:17;;;;;;;5.60;1.42;;;8.50;57.00;;;;;;5017410;28;20050;-81
2023/04/02 10:15:47;;;;;;;7.40;1.25;;;8.50;57.00;;;;;;5045502;28;20041;-81
2023/04/02 10:18:39;;;;;;;7.10;1.38;;;8.60;57.70;;;;;;5015226;28;20037;-81
2023/04/02 10:21:06;;;;;;;5.13;1.33;;;8.60;55.50;;;;;;4992381;28;20400;-82
2023/04/02 10:23:33;;;;;;;4.70;1.35;;;8.60;55.90;;;;;;4995724;28;20044;-81
2023/04/02 10:26:26;;;;;;;2.92;1.30;;;8.70;55.80;;;;;;5012387;28;20116;-82
2023/04/02 10:29:08;;;;;;;4.63;1.40;;;8.70;55.40;;;;;;5030998;28;20055;-82
2023/04/02 10:32:11;;;;;;;6.00;1.35;;;8.70;56.10;;;;;;5011451;28;20047;-82
2023/04/02 10:35:07;;;;;;;3.83;1.17;;;8.70;56.60;;;;;;5026951;28;20047;-82
2023/04/02 10:37:48;;;;;;;2.88;1.63;;;8.80;55.40;;;;;;5013578;28;20120;-82
2023/04/02 10:40:35;;;;;;;4.57;1.60;;;8.90;53.70;;;;;;5028336;28;20560;-81
2023/04/02 10:43:19;;;;;;;3.75;1.17;;;8.90;54.70;;;;;;5028306;28;20045;-81
2023/04/02 10:45:55;;;;;;;4.13;1.38;;;8.90;54.70;;;;;;5056606;28;20081;-82
2023/04/02 10:48:46;;;;;;;4.82;1.10;;;9.00;55.50;;;;;;4996027;28;20033;-82
2023/04/02 10:51:30;;;;;;;5.05;1.13;;;9.00;56.40;;;;;;5027357;28;20127;-82
2023/04/02 10:54:05;;;;;;;3.15;1.38;;;9.00;56.10;;;;;;5044992;28;20135;-81
2023/04/02 10:56:31;;;;;;;2.63;1.00;;;9.10;55.30;;;;;;4995046;28;20094;-82
2023/04/02 10:59:18;;;;;;;4.30;1.13;;;9.10;54.70;;;;;;4993693;28;20037;-81
2023/04/02 11:01:47;;;;;;;4.18;1.00;;;9.10;54.60;;;;;;4994234;28;20113;-81
2023/04/02 11:04:21;;;;;;;2.20;0.70;;;9.20;55.00;;;;;;5009462;28;20053;-80
2023/04/02 11:06:52;;;;;;;5.22;0.93;;;9.20;54.60;;;;;;5027792;28;20037;-80
2023/04/02 11:09:23;;;;;;;3.53;1.27;;;9.30;54.70;;;;;;5028086;28;20029;-82
2023/04/02 11:11:53;;;;;;;4.05;1.42;;;9.30;54.70;;;;;;5043676;28;20060;-84
2023/04/02 11:14:26;;;;;;;3.90;1.15;;;9.30;55.40;;;;;;4995172;28;20071;-85
2023/04/02 11:16:55;;;;;;;4.32;1.13;;;9.30;56.00;;;;;;4995077;28;20112;-84
2023/04/02 11:19:32;;;;;;;4.43;1.27;;;9.40;56.50;;;;;;5012134;28;20102;-84
2023/04/02 11:22:13;;;;;;;4.78;1.15;;;9.50;55.30;;;;;;4995246;28;20045;-84
2023/04/02 11:24:44;;;;;;;2.88;1.10;;;9.50;55.40;;;;;;5010797;28;20038;-84
2023/04/02 11:27:31;;;;;;;3.72;1.17;;;9.50;55.60;;;;;;5043444;28;20049;-84
2023/04/02 11:30:15;;;;;;;4.70;1.00;;;9.50;54.30;;;;;;5010867;28;20132;-84
2023/04/02 11:32:48;;;;;;;4.88;1.00;;;9.60;54.30;;;;;;4994460;28;20507;-84
2023/04/02 11:35:24;;;;;;;3.35;1.00;;;9.60;54.50;;;;;;5011237;28;20048;-84
2023/04/02 11:37:50;;;;;;;2.78;0.80;;;9.60;53.50;;;;;;5010770;28;20447;-84
2023/04/02 11:40:15;;;;;;;4.28;1.10;;;9.60;53.90;;;;;;5010584;28;20120;-84
2023/04/02 11:42:49;;;;;;;3.70;1.02;;;9.60;54.10;;;;;;5058127;28;20467;-83
2023/04/02 11:45:26;;;;;;;4.00;1.00;;;9.60;54.20;;;;;;5044070;28;20147;-84
2023/04/02 11:47:58;;;;;;;4.05;1.10;;;9.70;55.00;;;;;;5014009;28;20516;-85
2023/04/02 11:50:30;;;;;;;4.85;1.15;;;9.70;55.20;;;;;;4994969;28;20049;-85
2023/04/02 11:53:11;;;;;;;5.35;1.13;;;9.80;55.70;;;;;;5045162;28;20042;-85
2023/04/02 11:55:39;;;;;;;4.68;1.00;;;9.90;55.50;;;;;;5000394;28;20041;-84
2023/04/02 11:58:23;;;;;;;3.45;1.17;;;9.90;54.70;;;;;;5016880;28;20442;-86
2023/04/02 12:01:19;;;;;;;4.37;1.27;;;10.00;54.80;;;;;;5049892;28;20045;-85
2023/04/02 12:04:03;;;;;;;4.60;1.10;;;10.00;54.70;;;;;;4999995;28;20061;-82
2023/04/02 12:07:03;;;;;;;3.05;0.80;;;10.00;55.50;;;;;;4999940;28;20045;-81
2023/04/02 12:09:35;;;;;;;4.30;1.20;;;10.10;53.90;;;;;;4999942;28;20044;-81
2023/04/02 12:12:23;;;;;;;3.13;1.00;;;10.10;54.40;;;;;;5016327;28;20106;-82
2023/04/02 12:14:55;;;;;;;4.95;1.75;;;10.20;54.30;;;;;;5000036;28;20038;-78
2023/04/02 12:17:28;;;;;;;3.67;0.93;;;10.20;53.60;;;;;;5049323;28;20143;-80
2023/04/02 12:20:21;;;;;;;3.30;1.05;;;10.30;54.60;;;;;;5000073;28;20044;-80
2023/04/02 12:22:53;;;;;;;6.38;1.38;;;10.30;55.20;;;;;;4994984;28;20045;-79
2023/04/02 12:25:38;;;;;;;2.75;0.90;;;10.30;55.30;;;;;;4999788;28;20481;-79
2023/04/02 12:28:18;;;;;;;3.00;0.80;;;10.40;53.80;;;;;;5032629;28;20512;-79
2023/04/02 12:30:46;;;;;;;3.25;1.00;;;10.40;53.90;;;;;;5016086;28;20401;-78
2023/04/02 12:33:21;;;;;;;5.95;1.30;;;10.40;53.00;;;;;;5016138;28;20374;-78
2023/04/02 12:35:49;;;;;;;4.70;0.88;;;10.40;52.70;;;;;;4999981;28;20241;-79
2023/04/02 12:38:22;;;;;;;4.72;0.90;;;10.30;52.90;;;;;;5032365;28;20045;-78
2023/04/02 12:41:00;;;;;;;3.53;1.15;;;10.30;52.90;;;;;;5015941;28;20038;-79
2023/04/02 12:43:30;;;;;;;2.80;0.85;;;10.30;52.90;;;;;;5032690;28;20060;-78
2023/04/02 12:46:01;;;;;;;3.38;0.68;;;10.30;54.00;;;;;;4999909;28;20128;-79
2023/04/02 12:48:28;;;;;;;3.38;1.02;;;10.40;54.60;;;;;;5031966;28;20116;-77
2023/04/02 12:50:55;;;;;;;3.40;1.02;;;10.40;53.60;;;;;;5015232;28;20099;-78
2023/04/02 12:53:40;;;;;;;2.53;0.93;;;10.50;52.50;;;;;;5015680;28;20060;-78
2023/04/02 12:56:09;;;;;;;4.10;1.10;;;10.50;51.30;;;;;;5014815;28;20045;-79
2023/04/02 12:58:40;;;;;;;2.83;1.10;;;10.40;51.10;;;;;;5012531;28;20038;-78
2023/04/02 13:01:26;;;;;;;3.83;1.00;;;10.40;52.50;;;;;;5045119;28;20473;-79
2023/04/02 13:04:05;;;;;;;3.95;1.23;;;10.40;53.60;;;;;;5053640;28;20053;-79
2023/04/02 13:06:32;;;;;;;2.90;0.85;;;10.50;52.90;;;;;;5046765;28;20115;-78
2023/04/02 13:09:00;;;;;;;1.92;0.70;;;10.50;53.60;;;;;;5014264;28;20679;-78
2023/04/02 13:11:41;;;;;;;3.30;1.00;;;10.60;53.70;;;;;;4998467;28;20060;-77
2023/04/02 13:14:18;;;;;;;5.15;1.10;;;10.60;52.20;;;;;;4996800;28;20111;-78
2023/04/02 13:16:45;;;;;;;2.42;1.08;;;10.70;52.40;;;;;;5048271;28;20060;-78
2023/04/02 13:19:16;;;;;;;6.35;1.10;;;10.70;52.50;;;;;;5015183;28;20038;-78
2023/04/02 13:21:44;;;;;;;2.42;0.82;;;10.70;52.20;;;;;;5031126;28;20392;-77
2023/04/02 13:24:20;;;;;;;7.78;1.13;;;10.70;50.90;;;;;;5048161;28;20041;-77
2023/04/02 13:26:48;;;;;;;3.45;1.08;;;10.70;51.00;;;;;;5028833;28;20046;-77
2023/04/02 13:29:22;;;;;;;2.90;0.85;;;10.70;51.10;;;;;;5028533;28;20108;-77
2023/04/02 13:31:49;;;;;;;2.70;1.10;;;10.70;52.30;;;;;;5028784;28;20044;-77
2023/04/02 13:34:15;;;;;;;3.88;0.75;;;10.60;52.00;;;;;;4988757;28;20112;-77
2023/04/02 13:36:41;;;;;;;3.00;0.82;;;10.60;51.80;;;;;;5015159;28;20053;-75
2023/04/02 13:39:07;;;;;;;2.85;1.08;;;10.70;51.90;;;;;;4999056;28;20034;-78
2023/04/02 13:41:41;;;;;;;3.90;1.05;;;10.70;52.30;;;;;;5015458;28;20077;-78